Hedgesville, West Virginia
Current Conditions -  °F | °C
As of 4:53 AM on Sunday 21 Dec 2014 (Local Time) from KMRB Reporting Station
Overcast Overcast  
Wind Chill: 31°   Ceiling: 4100
Heat Index: 31°   Visibility: 8mi
Dew Point: 21°   Wind: 0mph
Humidity: 67%   Direction: NA
Pressure: 30.29"   Gusts: NA
Location:  39.55°N, 77.99°W
Report Text: KMRB 210953Z AUTO 00000KT 8SM OVC041 M01/M06 A3029 RMK AO2 SLP261 T10061061 TSNO
Loading
Personal Weather Stations






























Interactive Weather Map New forecast layout! Learn more

10-Day Weather Forecast

Advertisements
Track Severe Weather on mobile